San Jose de la Esquina, Argentina
Current Conditions -  °F | °C
As of 2:00 AM on Tuesday 27 Jan 2015 (Local Time) from SAAR Reporting Station
Broken Clouds Broken Clouds  
Wind Chill: 79°   Ceiling: 10000
Heat Index: 81°   Visibility: 6mi
Dew Point: 70°   Wind: 16mph
Humidity: 74%   Direction: 230°SW
Pressure: 29.77"   Gusts: NA
Location:  33.1°S, 61.7°W
Report Text: SAAR 270500Z 23014KT 9999 FEW030 FEW045CBBKN100 BKN200 26/21 Q1008
Loading
Personal Weather Stations






























Interactive Weather Map New forecast layout! Learn more

10-Day Weather Forecast

Advertisements
Track Severe Weather on mobile